Allenton, Missouri
Current Conditions -  °F | °C
As of 6:54 PM on Tuesday 27 Jan 2015 (Local Time) from KSUS Reporting Station
Clear Clear  
Wind Chill: 29°   Ceiling: Unl
Heat Index: 36°   Visibility: 8mi
Dew Point: 30°   Wind: 9mph
Humidity: 79%   Direction: 60°ENE
Pressure: 30.21"   Gusts: NA
Location:  38.5°N, 90.68°W
Report Text: KSUS 280054Z 06008KT 8SM CLR 02/M01 A3021 RMK AO2 SLP238 T00221011
Loading
Personal Weather Stations






























Interactive Weather Map New forecast layout! Learn more

10-Day Weather Forecast

Advertisements
Track Severe Weather on mobile